»·PEaware :: CAX948 KDFW-KPHX

CAX948 :: KDFW-KPHX

FLIGHT INFORMATION

Flight Status: Arrived
Operator:
California Airlines (website)
More flights by this operator :: More flights under this callsign
Pilot: Tony D. (5369)
Aircraft: AIRBUS A321
(A321)
More flights by this aircraft type
Origin: KDFW Dallas-Ft Worth Intl
United States
Destination: KPHX Phoenix Sky Harbor Intl
United States
More flights between these airports :: More routes between these airports
Route: KATZZ2 BRHMA CNX ZUN EAGUL6
File this flight plan on PilotEdge
Remarks: ESTIMATE ZAB BOUNDARY 1630z
Altitude:
(Current/Filed)
36,000ft
Speed:
(Current/Filed)
435kts
Departed: 11-Oct-17 08:29 AM
Arrived: 11-Oct-17 10:44 AM
Distance/Time
Traveled:
752nm/2:15
Distance/Time
To Go:
Arrived

Flight Plot

Page will automatically refresh every two minutes.

Flight plan parsing failed; only flown route is shown


Map Options




Map Legend


Flown Route
Filed Route
Departure Airport
Arrival Airport
Navaid (VOR, NDB)
Fix

Horizontal Profiles

Position Reports

Time Latitude Longitude Heading Altitude Ground
Speed
11-Oct-17 08:18 32.896472 -97.034995 290 616ft 0kts
11-Oct-17 08:19 32.896472 -97.034995 290 616ft 0kts
11-Oct-17 08:20 32.896472 -97.034995 290 616ft 0kts
11-Oct-17 08:21 32.896472 -97.034995 290 616ft 0kts
11-Oct-17 08:22 32.896472 -97.034995 290 616ft 0kts
11-Oct-17 08:23 32.896472 -97.034995 290 616ft 0kts
11-Oct-17 08:24 32.896472 -97.034995 290 616ft 0kts
11-Oct-17 08:25 32.896568 -97.034065 199 616ft 0kts
11-Oct-17 08:26 32.896568 -97.034065 199 616ft 0kts
11-Oct-17 08:27 32.896568 -97.034065 199 616ft 0kts
11-Oct-17 08:28 32.896062 -97.033611 114 616ft 13kts
11-Oct-17 08:29 32.891757 -97.033223 180 616ft 11kts
11-Oct-17 08:30 32.887827 -97.033245 179 616ft 16kts
11-Oct-17 08:31 32.883085 -97.032881 180 616ft 20kts
11-Oct-17 08:32 32.879036 -97.031568 90 616ft 6kts
11-Oct-17 08:33 32.879946 -97.030063 359 616ft 10kts
11-Oct-17 08:34 32.915191 -97.030296 358 1431ft 227kts
11-Oct-17 08:35 32.972887 -97.059038 335 3511ft 232kts
11-Oct-17 08:36 33.006760 -97.113121 268 5472ft 235kts
11-Oct-17 08:36 33.004001 -97.178721 265 7044ft 255kts
11-Oct-17 08:37 32.987257 -97.262804 244 9607ft 270kts
11-Oct-17 08:39 32.942935 -97.365756 243 11986ft 327kts
11-Oct-17 08:40 32.899778 -97.463410 243 14492ft 341kts
11-Oct-17 08:41 32.854615 -97.564958 242 16992ft 356kts
11-Oct-17 08:41 32.815382 -97.652566 241 19069ft 368kts
11-Oct-17 08:42 32.790735 -97.766347 280 21556ft 385kts
11-Oct-17 08:44 32.821285 -97.913355 282 24518ft 402kts
11-Oct-17 08:44 32.845884 -98.021126 282 26623ft 411kts
11-Oct-17 08:45 32.876585 -98.153579 282 29150ft 423kts
11-Oct-17 08:46 32.907418 -98.288786 281 31639ft 423kts
11-Oct-17 08:47 32.937869 -98.422101 280 34083ft 416kts
11-Oct-17 08:48 32.968100 -98.553670 280 36311ft 411kts
11-Oct-17 08:49 32.997427 -98.682108 279 36318ft 407kts
11-Oct-17 08:50 33.027070 -98.812292 279 36317ft 407kts
11-Oct-17 08:51 33.056607 -98.942389 279 36318ft 407kts
11-Oct-17 08:52 33.085960 -99.072388 279 36320ft 407kts
11-Oct-17 08:53 33.115092 -99.202098 279 36315ft 407kts
11-Oct-17 08:54 33.144173 -99.332368 279 36314ft 408kts
11-Oct-17 08:55 33.173238 -99.463065 279 36314ft 408kts
11-Oct-17 08:56 33.201933 -99.592991 279 36313ft 408kts
11-Oct-17 08:57 33.230097 -99.723505 279 36328ft 408kts
11-Oct-17 08:58 33.259464 -99.853960 279 36309ft 404kts
11-Oct-17 08:59 33.288632 -99.983182 279 36309ft 404kts
11-Oct-17 09:00 33.317814 -100.112783 279 36337ft 405kts
11-Oct-17 09:01 33.346900 -100.242591 279 36335ft 404kts
11-Oct-17 09:02 33.375802 -100.372186 279 36325ft 404kts
11-Oct-17 09:03 33.404555 -100.501903 279 36324ft 404kts
11-Oct-17 09:04 33.433139 -100.631517 279 36323ft 404kts
11-Oct-17 09:05 33.461365 -100.759994 278 36330ft 401kts
11-Oct-17 09:06 33.489443 -100.888779 278 36305ft 401kts
11-Oct-17 09:07 33.517432 -101.017806 278 36302ft 401kts
11-Oct-17 09:08 33.541878 -101.147595 277 36301ft 400kts
11-Oct-17 09:09 33.567372 -101.276929 277 36300ft 399kts
11-Oct-17 09:10 33.593328 -101.406410 277 36299ft 399kts
11-Oct-17 09:11 33.619175 -101.535380 277 36298ft 399kts
11-Oct-17 09:12 33.644886 -101.664250 277 36302ft 399kts
11-Oct-17 09:13 33.670444 -101.793042 277 36305ft 399kts
11-Oct-17 09:14 33.696054 -101.922819 277 36304ft 399kts
11-Oct-17 09:15 33.721425 -102.052152 277 36303ft 399kts
11-Oct-17 09:16 33.746686 -102.181689 277 36302ft 399kts
11-Oct-17 09:17 33.771736 -102.311242 277 36302ft 400kts
11-Oct-17 09:18 33.796850 -102.441335 277 36300ft 400kts
11-Oct-17 09:19 33.821763 -102.571364 277 36299ft 400kts
11-Oct-17 09:20 33.845690 -102.697072 277 36298ft 400kts
11-Oct-17 09:21 33.870374 -102.827635 277 36297ft 401kts
11-Oct-17 09:22 33.894965 -102.958230 277 36296ft 401kts
11-Oct-17 09:23 33.919394 -103.088884 277 36305ft 401kts
11-Oct-17 09:24 33.943725 -103.219864 277 36303ft 401kts
11-Oct-17 09:25 33.967912 -103.351031 277 36302ft 402kts
11-Oct-17 09:26 33.992060 -103.482578 277 36301ft 402kts
11-Oct-17 09:27 34.016050 -103.614185 277 36300ft 402kts
11-Oct-17 09:28 34.039741 -103.744997 277 36308ft 402kts
11-Oct-17 09:29 34.063521 -103.877245 277 36307ft 403kts
11-Oct-17 09:30 34.087131 -104.009210 277 36306ft 403kts
11-Oct-17 09:31 34.110414 -104.140275 277 36298ft 403kts
11-Oct-17 09:32 34.133719 -104.272457 277 36296ft 404kts
11-Oct-17 09:33 34.156915 -104.404816 277 36296ft 405kts
11-Oct-17 09:34 34.180087 -104.537784 277 36295ft 405kts
11-Oct-17 09:35 34.202810 -104.669152 277 36294ft 404kts
11-Oct-17 09:36 34.225598 -104.802233 277 36256ft 406kts
11-Oct-17 09:37 34.248394 -104.935546 277 36255ft 406kts
11-Oct-17 09:38 34.271082 -105.069512 277 36254ft 406kts
11-Oct-17 09:39 34.293560 -105.203039 277 36253ft 406kts
11-Oct-17 09:40 34.315722 -105.336046 278 36345ft 409kts
11-Oct-17 09:41 34.337945 -105.469853 278 36343ft 408kts
11-Oct-17 09:42 34.360148 -105.604684 278 36343ft 408kts
11-Oct-17 09:43 34.380266 -105.738915 277 36348ft 408kts
11-Oct-17 09:44 34.403321 -105.873873 279 36347ft 411kts
11-Oct-17 09:45 34.427967 -106.008491 279 36347ft 411kts
11-Oct-17 09:46 34.452928 -106.143618 279 36346ft 411kts
11-Oct-17 09:47 34.477789 -106.278694 279 36333ft 412kts
11-Oct-17 09:48 34.502605 -106.414204 279 36317ft 412kts
11-Oct-17 09:49 34.527289 -106.549824 279 36317ft 412kts
11-Oct-17 09:50 34.551712 -106.684981 279 36323ft 412kts
11-Oct-17 09:51 34.576077 -106.820683 279 36321ft 413kts
11-Oct-17 09:52 34.600294 -106.956499 279 36321ft 413kts
11-Oct-17 09:53 34.624367 -107.092431 279 36320ft 413kts
11-Oct-17 09:54 34.648299 -107.228493 279 36319ft 413kts
11-Oct-17 09:55 34.672145 -107.364931 279 36319ft 413kts
11-Oct-17 09:56 34.695789 -107.501306 279 36318ft 413kts
11-Oct-17 09:57 34.719302 -107.637829 279 36335ft 413kts
11-Oct-17 09:58 34.742381 -107.772677 278 36341ft 413kts
11-Oct-17 09:59 34.765503 -107.908652 278 36340ft 410kts
11-Oct-17 10:00 34.788375 -108.044445 278 36339ft 410kts
11-Oct-17 10:02 34.811125 -108.180358 278 36339ft 410kts
11-Oct-17 10:03 34.833686 -108.315877 277 36338ft 409kts
11-Oct-17 10:04 34.856045 -108.451511 277 36337ft 409kts
11-Oct-17 10:05 34.878296 -108.587361 277 36337ft 409kts
11-Oct-17 10:06 34.899707 -108.719018 277 36304ft 409kts
11-Oct-17 10:07 34.921553 -108.854132 277 36234ft 407kts
11-Oct-17 10:08 34.943278 -108.989755 277 36231ft 407kts
11-Oct-17 10:09 34.963898 -109.119425 276 36228ft 407kts
11-Oct-17 10:10 34.932622 -109.245919 245 36231ft 397kts
11-Oct-17 10:11 34.887995 -109.368145 245 36228ft 395kts
11-Oct-17 10:12 34.843461 -109.490070 245 36227ft 395kts
11-Oct-17 10:13 34.798771 -109.612046 245 36226ft 395kts
11-Oct-17 10:14 34.754667 -109.730784 244 36232ft 395kts
11-Oct-17 10:15 34.709069 -109.853780 244 36186ft 401kts
11-Oct-17 10:16 34.663132 -109.976904 245 34695ft 402kts
11-Oct-17 10:17 34.616912 -110.100971 245 33231ft 406kts
11-Oct-17 10:18 34.570599 -110.224959 245 31734ft 400kts
11-Oct-17 10:19 34.525571 -110.345063 245 30501ft 387kts
11-Oct-17 10:20 34.481127 -110.462609 245 29275ft 380kts
11-Oct-17 10:21 34.437307 -110.577783 245 28043ft 374kts
11-Oct-17 10:22 34.395093 -110.688919 245 26843ft 367kts
11-Oct-17 10:23 34.350741 -110.797470 230 25627ft 364kts
11-Oct-17 10:24 34.282746 -110.887098 228 24299ft 359kts
11-Oct-17 10:25 34.215540 -110.974689 228 22792ft 353kts
11-Oct-17 10:26 34.151137 -111.057989 228 21238ft 332kts
11-Oct-17 10:27 34.088542 -111.138380 227 19938ft 326kts
11-Oct-17 10:28 34.027107 -111.217197 227 18723ft 320kts
11-Oct-17 10:29 33.966893 -111.294410 227 17496ft 309kts
11-Oct-17 10:30 33.910202 -111.366939 227 16225ft 292kts
11-Oct-17 10:31 33.862817 -111.439833 236 15157ft 287kts
11-Oct-17 10:32 33.820286 -111.519975 236 14153ft 283kts
11-Oct-17 10:33 33.778952 -111.597911 236 12921ft 267kts
11-Oct-17 10:34 33.741290 -111.668461 235 11873ft 254kts
11-Oct-17 10:35 33.703258 -111.739737 235 11075ft 251kts
11-Oct-17 10:36 33.668344 -111.805582 234 10355ft 225kts
11-Oct-17 10:37 33.634565 -111.869106 234 10039ft 225kts
11-Oct-17 10:38 33.600776 -111.932530 234 9151ft 223kts
11-Oct-17 10:39 33.567689 -111.994675 234 7952ft 220kts
11-Oct-17 10:40 33.535048 -112.055976 234 7000ft 217kts
11-Oct-17 10:41 33.515456 -112.125432 250 6338ft 226kts
11-Oct-17 10:42 33.498941 -112.197189 250 5128ft 222kts
11-Oct-17 10:43 33.478033 -112.260892 202 3898ft 194kts
11-Oct-17 10:44 33.442238 -112.226782 119 3030ft 202kts
11-Oct-17 10:45 33.429458 -112.172191 91 3013ft 177kts
11-Oct-17 10:46 33.428959 -112.117543 91 2624ft 160kts
11-Oct-17 10:47 33.428859 -112.069335 90 1857ft 144kts
11-Oct-17 10:48 33.428844 -112.028260 90 1208ft 148kts
11-Oct-17 10:49 33.428034 -112.005410 194 1144ft 7kts
11-Oct-17 10:49 33.427752 -112.006840 270 1144ft 11kts
11-Oct-17 10:51 33.427753 -112.013113 270 1144ft 15kts
11-Oct-17 10:52 33.427347 -112.017348 196 1144ft 11kts
11-Oct-17 10:52 33.425814 -112.018332 271 1144ft 0kts
11-Oct-17 10:54 33.425814 -112.018332 271 1144ft 0kts
11-Oct-17 10:54 33.425814 -112.018332 271 1144ft 0kts

Navigation Log

Ident Type
Flight plan parsing failed, navigation log unavailable